createdAt,value
2023-01-20T00:00:23.247Z,11.20
2023-01-20T00:04:25.286Z,11.30
2023-01-20T00:08:27.096Z,11.37
2023-01-20T00:12:31.866Z,11.63
2023-01-20T00:16:34.116Z,10.60
2023-01-20T00:20:35.923Z,12.43
2023-01-20T00:24:37.733Z,10.83
2023-01-20T00:28:39.883Z,10.23
2023-01-20T00:32:45.461Z,10.27
2023-01-20T00:36:47.450Z,10.53
2023-01-20T00:40:55.121Z,14.00
2023-01-20T00:44:56.999Z,12.40
2023-01-20T00:48:58.951Z,12.07
2023-01-20T00:53:00.881Z,12.63
2023-01-20T00:57:02.684Z,12.17
2023-01-20T01:01:05.013Z,13.37
2023-01-20T01:05:07.169Z,13.17
2023-01-20T01:09:08.952Z,12.83
2023-01-20T01:13:11.076Z,11.03
2023-01-20T01:17:16.054Z,12.13
2023-01-20T01:21:20.788Z,13.67
2023-01-20T01:25:22.724Z,12.67
2023-01-20T01:29:24.773Z,12.33
2023-01-20T01:33:26.637Z,13.47
2023-01-20T01:37:28.869Z,14.07
2023-01-20T01:41:31.080Z,12.93
2023-01-20T01:45:33.125Z,13.90
2023-01-20T01:49:35.132Z,13.03
2023-01-20T01:53:54.036Z,14.93
2023-01-20T01:57:57.017Z,13.60
2023-01-20T02:01:59.863Z,15.77
2023-01-20T02:06:01.776Z,14.43
2023-01-20T02:10:03.912Z,14.23
2023-01-20T02:14:06.256Z,16.30
2023-01-20T02:18:34.537Z,15.73
2023-01-20T02:22:58.295Z,15.23
2023-01-20T02:27:08.729Z,17.33
2023-01-20T02:32:06.837Z,15.43
2023-01-20T02:36:19.616Z,13.40
2023-01-20T02:40:59.764Z,16.57
2023-01-20T02:45:27.818Z,14.37
2023-01-20T02:50:09.369Z,13.73
2023-01-20T02:54:12.413Z,14.00
2023-01-20T02:58:31.726Z,13.80
2023-01-20T03:02:33.982Z,13.07
2023-01-20T03:06:39.326Z,13.40
2023-01-20T03:10:42.108Z,10.97
2023-01-20T03:14:44.030Z,13.83
2023-01-20T03:18:46.056Z,13.67
2023-01-20T03:22:47.930Z,13.37
2023-01-20T03:26:49.735Z,12.73
2023-01-20T03:30:52.176Z,12.77
2023-01-20T03:34:55.414Z,11.27
2023-01-20T03:38:57.455Z,13.53
2023-01-20T03:43:12.590Z,15.10
2023-01-20T03:47:29.218Z,13.63
2023-01-20T03:51:54.373Z,13.57
2023-01-20T03:56:08.778Z,15.90
2023-01-20T04:00:11.380Z,13.37
2023-01-20T04:04:19.562Z,14.03
2023-01-20T04:08:22.506Z,15.30
2023-01-20T04:12:24.432Z,14.10
2023-01-20T04:16:26.517Z,13.50
2023-01-20T04:20:28.294Z,15.60
2023-01-20T04:24:37.623Z,15.90
2023-01-20T04:28:39.471Z,13.50
2023-01-20T04:32:41.297Z,14.77
2023-01-20T04:36:43.260Z,17.00
2023-01-20T04:40:45.129Z,15.23
2023-01-20T04:44:46.954Z,17.57
2023-01-20T04:48:48.937Z,18.10
2023-01-20T04:52:54.633Z,16.63
2023-01-20T04:56:56.464Z,16.73
2023-01-20T05:01:02.803Z,14.43
2023-01-20T05:05:05.062Z,15.03
2023-01-20T05:09:06.956Z,18.00
2023-01-20T05:13:11.988Z,16.90
2023-01-20T05:17:14.923Z,17.70
2023-01-20T05:21:16.865Z,16.37
2023-01-20T05:25:20.326Z,17.60
2023-01-20T05:29:22.304Z,19.73
2023-01-20T05:33:26.898Z,19.70
2023-01-20T05:37:28.705Z,18.43
2023-01-20T05:41:30.733Z,17.57
2023-01-20T05:45:32.663Z,17.87
2023-01-20T05:49:35.846Z,17.93
2023-01-20T05:53:45.036Z,18.60
2023-01-20T05:57:46.809Z,16.07
2023-01-20T06:01:48.685Z,19.10
2023-01-20T06:05:50.529Z,17.97
2023-01-20T06:09:53.678Z,17.20
2023-01-20T06:13:55.710Z,15.43
2023-01-20T06:17:57.509Z,22.67
2023-01-20T06:21:59.426Z,17.00
2023-01-20T06:26:06.907Z,18.20
2023-01-20T06:30:09.934Z,16.80
2023-01-20T06:34:12.335Z,21.00
2023-01-20T06:38:15.893Z,20.07
2023-01-20T06:42:17.745Z,19.27
2023-01-20T06:46:22.586Z,17.87
2023-01-20T06:50:27.477Z,23.17
2023-01-20T06:54:29.567Z,21.40
2023-01-20T06:58:32.429Z,16.40
2023-01-20T07:02:34.338Z,19.40
2023-01-20T07:06:38.600Z,19.33
2023-01-20T07:10:40.487Z,26.67
2023-01-20T07:14:42.319Z,18.77
2023-01-20T07:18:47.671Z,19.20
2023-01-20T07:22:49.443Z,27.33
2023-01-20T07:26:53.932Z,23.27
2023-01-20T07:30:55.853Z,17.87
2023-01-20T07:34:57.807Z,17.83
2023-01-20T07:38:59.611Z,23.23
2023-01-20T07:43:04.216Z,25.90
2023-01-20T07:47:06.028Z,21.03
2023-01-20T07:51:09.854Z,18.23
2023-01-20T07:55:11.693Z,21.17
2023-01-20T07:59:13.503Z,15.30
2023-01-20T08:03:16.281Z,18.73
2023-01-20T08:07:18.072Z,17.90
2023-01-20T08:11:20.771Z,21.00
2023-01-20T08:15:22.558Z,16.67
2023-01-20T08:19:24.445Z,22.83
2023-01-20T08:23:26.204Z,23.00
2023-01-20T08:27:28.117Z,19.07
2023-01-20T08:31:30.126Z,17.50
2023-01-20T08:35:34.406Z,18.87
2023-01-20T08:39:36.358Z,17.97
2023-01-20T08:43:38.170Z,25.03
2023-01-20T08:47:44.437Z,20.23
2023-01-20T08:51:46.308Z,18.27
2023-01-20T08:55:58.305Z,19.10
2023-01-20T09:00:00.168Z,17.07
2023-01-20T09:04:07.186Z,22.87
2023-01-20T09:08:09.421Z,25.30
2023-01-20T09:12:11.355Z,21.70
2023-01-20T09:16:17.102Z,22.77
2023-01-20T09:20:18.958Z,18.43
2023-01-20T09:24:21.101Z,21.03
2023-01-20T09:28:22.877Z,23.27
2023-01-20T09:32:26.835Z,21.63
2023-01-20T09:36:31.346Z,20.60
2023-01-20T09:41:02.513Z,20.43
2023-01-20T09:45:25.209Z,21.47
2023-01-20T09:49:58.347Z,21.17
2023-01-20T09:54:16.812Z,18.40
2023-01-20T09:58:45.360Z,21.67
2023-01-20T10:02:51.946Z,20.80
2023-01-20T10:07:34.060Z,21.70
2023-01-20T10:11:39.217Z,23.23
2023-01-20T10:15:45.067Z,21.70
2023-01-20T10:19:52.038Z,22.23
2023-01-20T10:23:57.856Z,18.80
2023-01-20T10:28:26.526Z,21.10
2023-01-20T10:32:39.156Z,24.43
2023-01-20T10:36:44.077Z,20.97
2023-01-20T10:41:00.539Z,20.80
2023-01-20T10:45:02.593Z,17.10
2023-01-20T10:49:37.188Z,19.03
2023-01-20T10:53:50.394Z,20.50
2023-01-20T10:57:56.637Z,25.03
2023-01-20T11:02:22.940Z,19.60
2023-01-20T11:06:26.882Z,22.00
2023-01-20T11:10:30.092Z,21.77
2023-01-20T11:14:32.071Z,26.40
2023-01-20T11:18:33.995Z,25.50
2023-01-20T11:22:36.893Z,20.80
2023-01-20T11:26:38.866Z,22.07
2023-01-20T11:30:40.735Z,22.87
2023-01-20T11:34:43.631Z,21.73
2023-01-20T11:38:50.135Z,20.97
2023-01-20T11:42:53.333Z,21.90
2023-01-20T11:46:55.245Z,23.03
2023-01-20T11:50:58.916Z,24.47
2023-01-20T11:55:25.847Z,24.87
2023-01-20T11:59:41.507Z,27.93
2023-01-20T12:03:59.816Z,22.40
2023-01-20T12:08:04.422Z,25.20
2023-01-20T12:12:39.746Z,23.10
2023-01-20T12:16:46.031Z,26.37
2023-01-20T12:21:10.637Z,29.67
2023-01-20T12:25:28.338Z,24.40
2023-01-20T12:29:38.158Z,21.87
2023-01-20T12:33:44.650Z,24.67
2023-01-20T12:38:06.913Z,23.93
2023-01-20T12:42:30.333Z,24.47
2023-01-20T12:47:17.576Z,26.33
2023-01-20T12:52:10.111Z,25.50
2023-01-20T12:56:42.886Z,26.80
2023-01-20T13:00:55.646Z,25.63
2023-01-20T13:05:42.290Z,25.07
2023-01-20T13:10:18.488Z,24.10
2023-01-20T13:14:49.152Z,25.17
2023-01-20T13:19:03.856Z,25.17
2023-01-20T13:23:05.849Z,24.30
2023-01-20T13:27:07.756Z,21.57
2023-01-20T13:31:36.576Z,23.53
2023-01-20T13:35:46.342Z,26.33
2023-01-20T13:39:49.350Z,28.00
2023-01-20T13:43:52.425Z,21.60
2023-01-20T13:48:06.538Z,22.90
2023-01-20T13:52:10.440Z,25.87
2023-01-20T13:56:29.489Z,23.57
2023-01-20T14:00:31.291Z,25.20
2023-01-20T14:04:38.530Z,27.70
2023-01-20T14:08:45.678Z,28.13
2023-01-20T14:12:47.599Z,28.47
2023-01-20T14:16:49.569Z,26.17
2023-01-20T14:21:18.143Z,24.83
2023-01-20T14:25:27.221Z,25.67
2023-01-20T14:29:32.168Z,28.10
2023-01-20T14:33:36.058Z,33.17
2023-01-20T14:37:42.818Z,30.13
2023-01-20T14:41:53.100Z,29.70
2023-01-20T14:45:55.031Z,28.80
2023-01-20T14:49:56.952Z,25.97
2023-01-20T14:54:35.544Z,25.57
2023-01-20T14:58:37.364Z,29.27
2023-01-20T15:02:40.228Z,27.70
2023-01-20T15:06:42.219Z,28.73
2023-01-20T15:10:44.771Z,24.40
2023-01-20T15:15:22.589Z,27.63
2023-01-20T15:19:32.433Z,27.10
2023-01-20T15:23:41.474Z,29.63
2023-01-20T15:27:46.201Z,29.60
2023-01-20T15:31:48.918Z,31.90
2023-01-20T15:35:59.710Z,32.40
2023-01-20T15:40:01.661Z,28.43
2023-01-20T15:44:04.603Z,27.00
2023-01-20T15:48:24.721Z,28.10
2023-01-20T15:52:26.555Z,34.17
2023-01-20T15:56:30.248Z,31.37
2023-01-20T16:00:38.841Z,30.77
2023-01-20T16:04:43.527Z,27.93
2023-01-20T16:08:48.001Z,31.87
2023-01-20T16:12:51.133Z,28.57
2023-01-20T16:16:56.574Z,30.60
2023-01-20T16:21:45.918Z,26.27
2023-01-20T16:25:50.497Z,28.23
2023-01-20T16:30:03.104Z,30.40
2023-01-20T16:34:05.882Z,28.37
2023-01-20T16:38:08.805Z,27.20
2023-01-20T16:42:16.733Z,27.73
2023-01-20T16:46:21.014Z,30.07
2023-01-20T16:50:22.923Z,28.27
2023-01-20T16:54:27.980Z,30.80
2023-01-20T16:58:30.316Z,31.70
2023-01-20T17:02:35.306Z,28.67
2023-01-20T17:06:41.118Z,31.30
2023-01-20T17:10:47.473Z,30.70
2023-01-20T17:14:49.537Z,29.10
2023-01-20T17:18:54.314Z,28.63
2023-01-20T17:22:56.299Z,26.70
2023-01-20T17:26:58.663Z,24.03
2023-01-20T17:31:06.995Z,32.60
2023-01-20T17:35:12.979Z,29.40
2023-01-20T17:39:14.816Z,25.33
2023-01-20T17:43:16.895Z,26.00
2023-01-20T17:47:18.909Z,24.40
2023-01-20T17:51:27.794Z,25.33
2023-01-20T17:55:29.906Z,24.90
2023-01-20T17:59:34.319Z,23.43
2023-01-20T18:03:36.533Z,24.17
2023-01-20T18:07:41.492Z,26.33
2023-01-20T18:11:59.036Z,29.37
2023-01-20T18:16:55.542Z,30.70
2023-01-20T18:21:39.734Z,27.20
2023-01-20T18:25:42.231Z,26.00
2023-01-20T18:29:44.271Z,25.37
2023-01-20T18:34:04.759Z,20.30
2023-01-20T18:38:09.091Z,23.67
2023-01-20T18:42:11.423Z,20.27
2023-01-20T18:46:30.249Z,20.27
2023-01-20T18:50:32.206Z,21.03
2023-01-20T18:54:41.383Z,22.77
2023-01-20T18:58:49.755Z,19.70
2023-01-20T19:02:52.285Z,16.03
2023-01-20T19:06:54.264Z,21.20
2023-01-20T19:11:08.202Z,19.20
2023-01-20T19:15:10.630Z,21.30
2023-01-20T19:19:19.435Z,19.73
2023-01-20T19:23:21.408Z,22.50
2023-01-20T19:27:26.603Z,21.00
2023-01-20T19:31:36.573Z,25.17
2023-01-20T19:35:42.136Z,23.13
2023-01-20T19:39:44.125Z,21.53
2023-01-20T19:43:46.241Z,15.90
2023-01-20T19:47:48.087Z,21.27
2023-01-20T19:51:53.072Z,18.97
2023-01-20T19:56:04.874Z,21.30
2023-01-20T20:00:07.898Z,24.20
2023-01-20T20:04:11.473Z,19.50
2023-01-20T20:08:13.463Z,22.97
2023-01-20T20:12:15.429Z,24.77
2023-01-20T20:16:18.273Z,17.97
2023-01-20T20:20:21.820Z,20.20
2023-01-20T20:24:23.728Z,16.60
2023-01-20T20:28:26.993Z,18.10
2023-01-20T20:32:33.107Z,18.40
2023-01-20T20:36:35.201Z,16.50
2023-01-20T20:40:37.286Z,20.90
2023-01-20T20:44:41.655Z,19.37
2023-01-20T20:48:43.622Z,16.57
2023-01-20T20:52:46.630Z,19.13
2023-01-20T20:56:48.691Z,16.93
2023-01-20T21:00:51.157Z,19.50
2023-01-20T21:04:53.348Z,21.20
2023-01-20T21:08:55.533Z,16.90
2023-01-20T21:13:01.464Z,17.33
2023-01-20T21:17:04.039Z,19.13
2023-01-20T21:21:09.495Z,20.27
2023-01-20T21:25:11.427Z,21.93
2023-01-20T21:29:13.735Z,20.50
2023-01-20T21:33:17.672Z,24.63
2023-01-20T21:37:20.596Z,24.20
2023-01-20T21:41:23.982Z,24.37
2023-01-20T21:45:25.929Z,22.80
2023-01-20T21:49:47.725Z,27.60
2023-01-20T21:53:52.129Z,28.73
2023-01-20T21:57:54.073Z,28.93
2023-01-20T22:01:56.070Z,27.13
2023-01-20T22:05:57.875Z,27.43
2023-01-20T22:10:00.074Z,28.17
2023-01-20T22:14:02.140Z,19.37
2023-01-20T22:18:03.967Z,25.97
2023-01-20T22:22:05.875Z,23.40
2023-01-20T22:26:07.750Z,22.50
2023-01-20T22:30:10.560Z,24.07
2023-01-20T22:34:12.551Z,20.80
2023-01-20T22:38:14.550Z,22.00
2023-01-20T22:42:16.408Z,25.63
2023-01-20T22:46:20.887Z,25.80
2023-01-20T22:50:22.769Z,21.73
2023-01-20T22:54:24.591Z,22.03
2023-01-20T22:58:26.385Z,25.93
2023-01-20T23:02:30.526Z,23.03
2023-01-20T23:06:34.910Z,22.40
2023-01-20T23:10:48.603Z,18.20
2023-01-20T23:14:59.076Z,19.20
2023-01-20T23:19:00.850Z,19.00
2023-01-20T23:23:02.945Z,13.83
2023-01-20T23:27:04.818Z,14.83
2023-01-20T23:31:08.434Z,13.70
2023-01-20T23:35:10.348Z,16.67
2023-01-20T23:39:12.182Z,17.37
2023-01-20T23:43:14.023Z,14.47
2023-01-20T23:47:15.819Z,13.37
2023-01-20T23:51:17.694Z,15.00
2023-01-20T23:55:19.460Z,12.70
2023-01-20T23:59:21.333Z,13.77
